Satenas, Sweden

10:30 PM CEST on September 19, 2014 (GMT +0200)
Satenas Air Base | Change Station
CLOSE
Current Station
Airport
Location: Satenas,
Elevation: 177 ft
Nearby Weather Stations

Elev 177 ft 58.43 °N, 12.71 °E | Updated 10 minutes ago

Partly Cloudy
Partly Cloudy
54 °F
Feels Like 54 °F
N
6
Wind Variable Wind from NE

Today
High -- | Low -- °F
--% Chance of Precip.
Yesterday
High -- | Low -- °F
Precip. -- in
6:46 AM 7:17 PM
Waning Crescent, 17% visible
Pressure 30.04 in
Visibility 6.2 miles
Clouds Few 5000 ft
Dew Point 50 °F
Humidity 88%
Rainfall 0.00 in
Snow Depth Not available.
UV 0 out of 12
Pollen Not available.
Air Quality Not available.
Flu Activity Not available.
METAR ESIB 192020Z AUTO 04005KT 9999NDV FEW050/// 12/10 Q1017

More Conditions Fewer Conditions

Pressure 30.04 in
Visibility 6.2 miles
Clouds Few 5000 ft
Dew Point 50 °F
Humidity 88%
Rainfall 0.00 in
Snow Depth Not available.
UV 0 out of 12
Pollen Not available.
Air Quality Not available.
Flu Activity Not available.
METAR ESIB 192020Z AUTO 04005KT 9999NDV FEW050/// 12/10 Q1017

More Conditions Fewer Conditions

10-Day Weather Forecast

Almanac

Astronomy

Sep. 19, 2014 Rise Set
Actual Time 6:46 AM CEST 7:17 PM CEST
Civil Twilight 6:06 AM CEST 7:57 PM CEST
Nautical Twilight 5:18 AM CEST 8:45 PM CEST
Astronomical Twilight 4:25 AM CEST 9:38 PM CEST
Moon 1:28 AM CEST 5:17 PM CEST
Length of Visible Light 13h 50m
Length of Day
12h 31m
Tomorrow will be 5m 4s shorter.
Waning Crescent, 17% of the Moon is Illuminated
Today
Waning Crescent
Sep 24
New
Oct 1
First Quarter
Oct 8
Full
Oct 15
Last Quarter

Today's Extremes

Country Highs Country Lows

Community

WunderPhotos

Upload Photos

1,754,694 photos uploaded!

WunderBlogs® & News

By Dr. Jeff Masters
Director of Meteorology, Weather Underground
By Kari Strenfel
Meteorologist, Weather Underground
By Christopher C. Burt
Weather Historian, Weather Underground
September 19, 2014
September 19, 2014
September 19, 2014

Nearby

Snow Depth

Not available.

Earthquake Activity

City Distance Mag. Time & Date
No recent earthquake activity has been reported nearby.
Minimum magnitude displayed is 2.5.

Coastal Water Temperatures

Place Temperature
No Stations Reporting

Nearby Weather Stations